sensor_id;sensor_type;location;lat;lon;timestamp;temperature;humidity
25092;DHT22;13082;52.374;4.946;2022-07-06T00:00:04;17.50;99.90
25092;DHT22;13082;52.374;4.946;2022-07-06T00:02:30;17.50;99.90
25092;DHT22;13082;52.374;4.946;2022-07-06T00:04:56;17.50;99.90
25092;DHT22;13082;52.374;4.946;2022-07-06T00:07:23;17.40;99.90
25092;DHT22;13082;52.374;4.946;2022-07-06T00:09:49;17.40;99.90
25092;DHT22;13082;52.374;4.946;2022-07-06T00:12:15;17.40;99.90
25092;DHT22;13082;52.374;4.946;2022-07-06T00:14:41;17.30;99.90
25092;DHT22;13082;52.374;4.946;2022-07-06T00:17:07;17.20;99.90
25092;DHT22;13082;52.374;4.946;2022-07-06T00:19:32;17.20;99.90
25092;DHT22;13082;52.374;4.946;2022-07-06T00:21:58;17.10;99.90
25092;DHT22;13082;52.374;4.946;2022-07-06T00:24:24;17.10;99.90
25092;DHT22;13082;52.374;4.946;2022-07-06T00:26:49;17.10;99.90
25092;DHT22;13082;52.374;4.946;2022-07-06T00:29:15;17.10;99.90
25092;DHT22;13082;52.374;4.946;2022-07-06T00:31:40;17.10;99.90
25092;DHT22;13082;52.374;4.946;2022-07-06T00:34:06;17.10;99.90
25092;DHT22;13082;52.374;4.946;2022-07-06T00:36:31;17.10;99.90
25092;DHT22;13082;52.374;4.946;2022-07-06T00:38:57;17.10;99.90
25092;DHT22;13082;52.374;4.946;2022-07-06T00:41:23;17.20;99.90
25092;DHT22;13082;52.374;4.946;2022-07-06T00:43:50;17.20;99.90
25092;DHT22;13082;52.374;4.946;2022-07-06T00:46:17;17.20;99.90
25092;DHT22;13082;52.374;4.946;2022-07-06T00:48:43;17.20;99.90
25092;DHT22;13082;52.374;4.946;2022-07-06T00:51:10;17.20;99.90
25092;DHT22;13082;52.374;4.946;2022-07-06T00:53:36;17.20;99.90
25092;DHT22;13082;52.374;4.946;2022-07-06T00:56:02;17.10;99.90
25092;DHT22;13082;52.374;4.946;2022-07-06T00:58:28;17.20;99.90
25092;DHT22;13082;52.374;4.946;2022-07-06T01:00:54;17.20;99.90
25092;DHT22;13082;52.374;4.946;2022-07-06T01:03:19;17.30;99.90
25092;DHT22;13082;52.374;4.946;2022-07-06T01:05:45;17.40;99.90
25092;DHT22;13082;52.374;4.946;2022-07-06T01:08:11;17.40;99.90
25092;DHT22;13082;52.374;4.946;2022-07-06T01:10:37;17.50;99.90
25092;DHT22;13082;52.374;4.946;2022-07-06T01:13:03;17.50;99.90
25092;DHT22;13082;52.374;4.946;2022-07-06T01:15:28;17.60;99.90
25092;DHT22;13082;52.374;4.946;2022-07-06T01:17:54;17.60;99.90
25092;DHT22;13082;52.374;4.946;2022-07-06T01:20:21;17.60;99.90
25092;DHT22;13082;52.374;4.946;2022-07-06T01:22:49;17.50;99.90
25092;DHT22;13082;52.374;4.946;2022-07-06T01:25:15;17.50;99.90
25092;DHT22;13082;52.374;4.946;2022-07-06T01:27:41;17.50;99.90
25092;DHT22;13082;52.374;4.946;2022-07-06T01:30:13;17.50;99.90
25092;DHT22;13082;52.374;4.946;2022-07-06T01:32:40;17.60;99.90
25092;DHT22;13082;52.374;4.946;2022-07-06T01:35:07;17.60;99.90
25092;DHT22;13082;52.374;4.946;2022-07-06T01:37:33;17.60;99.90
25092;DHT22;13082;52.374;4.946;2022-07-06T01:40:06;17.50;99.90
25092;DHT22;13082;52.374;4.946;2022-07-06T01:42:33;17.50;99.90
25092;DHT22;13082;52.374;4.946;2022-07-06T01:44:59;17.60;99.90
25092;DHT22;13082;52.374;4.946;2022-07-06T01:47:25;17.60;99.90
25092;DHT22;13082;52.374;4.946;2022-07-06T01:49:50;17.70;99.90
25092;DHT22;13082;52.374;4.946;2022-07-06T01:52:16;17.80;99.90
25092;DHT22;13082;52.374;4.946;2022-07-06T01:54:42;17.80;99.90
25092;DHT22;13082;52.374;4.946;2022-07-06T01:57:07;17.80;99.90
25092;DHT22;13082;52.374;4.946;2022-07-06T01:59:33;17.80;99.90
25092;DHT22;13082;52.374;4.946;2022-07-06T02:01:59;17.70;99.90
25092;DHT22;13082;52.374;4.946;2022-07-06T02:04:24;17.70;99.90
25092;DHT22;13082;52.374;4.946;2022-07-06T02:06:50;17.70;99.90
25092;DHT22;13082;52.374;4.946;2022-07-06T02:09:16;17.70;99.90
25092;DHT22;13082;52.374;4.946;2022-07-06T02:11:42;17.70;99.90
25092;DHT22;13082;52.374;4.946;2022-07-06T02:14:07;17.70;99.90
25092;DHT22;13082;52.374;4.946;2022-07-06T02:16:33;17.70;99.90
25092;DHT22;13082;52.374;4.946;2022-07-06T02:18:59;17.50;99.90
25092;DHT22;13082;52.374;4.946;2022-07-06T02:21:24;17.40;99.90
25092;DHT22;13082;52.374;4.946;2022-07-06T02:23:50;17.30;99.90
25092;DHT22;13082;52.374;4.946;2022-07-06T02:26:15;17.30;99.90
25092;DHT22;13082;52.374;4.946;2022-07-06T02:28:41;17.10;99.90
25092;DHT22;13082;52.374;4.946;2022-07-06T02:31:06;17.10;99.90
25092;DHT22;13082;52.374;4.946;2022-07-06T02:33:32;17.00;99.90
25092;DHT22;13082;52.374;4.946;2022-07-06T02:35:57;17.00;99.90
25092;DHT22;13082;52.374;4.946;2022-07-06T02:38:23;17.00;99.90
25092;DHT22;13082;52.374;4.946;2022-07-06T02:40:49;17.00;99.90
25092;DHT22;13082;52.374;4.946;2022-07-06T02:43:15;17.00;99.90
25092;DHT22;13082;52.374;4.946;2022-07-06T02:45:41;17.00;99.90
25092;DHT22;13082;52.374;4.946;2022-07-06T02:48:06;17.10;99.90
25092;DHT22;13082;52.374;4.946;2022-07-06T02:50:32;17.10;99.90
25092;DHT22;13082;52.374;4.946;2022-07-06T02:52:58;17.10;99.90
25092;DHT22;13082;52.374;4.946;2022-07-06T02:55:27;17.20;99.90
25092;DHT22;13082;52.374;4.946;2022-07-06T02:57:53;17.30;99.90
25092;DHT22;13082;52.374;4.946;2022-07-06T03:00:18;17.40;99.90
25092;DHT22;13082;52.374;4.946;2022-07-06T03:02:44;17.40;99.90
25092;DHT22;13082;52.374;4.946;2022-07-06T03:05:09;17.50;99.90
25092;DHT22;13082;52.374;4.946;2022-07-06T03:07:35;17.50;99.90
25092;DHT22;13082;52.374;4.946;2022-07-06T03:10:01;17.60;99.90
25092;DHT22;13082;52.374;4.946;2022-07-06T03:12:26;17.60;99.90
25092;DHT22;13082;52.374;4.946;2022-07-06T03:14:52;17.60;99.90
25092;DHT22;13082;52.374;4.946;2022-07-06T03:17:18;17.60;99.90
25092;DHT22;13082;52.374;4.946;2022-07-06T03:19:43;17.60;99.90
25092;DHT22;13082;52.374;4.946;2022-07-06T03:22:09;17.40;99.90
25092;DHT22;13082;52.374;4.946;2022-07-06T03:24:34;17.30;99.90
25092;DHT22;13082;52.374;4.946;2022-07-06T03:27:00;17.20;99.90
25092;DHT22;13082;52.374;4.946;2022-07-06T03:29:26;17.20;99.90
25092;DHT22;13082;52.374;4.946;2022-07-06T03:31:51;17.20;99.90
25092;DHT22;13082;52.374;4.946;2022-07-06T03:34:17;17.10;99.90
25092;DHT22;13082;52.374;4.946;2022-07-06T03:36:42;16.90;99.90
25092;DHT22;13082;52.374;4.946;2022-07-06T03:39:08;16.90;99.90
25092;DHT22;13082;52.374;4.946;2022-07-06T03:41:33;17.00;99.90
25092;DHT22;13082;52.374;4.946;2022-07-06T03:43:59;17.10;99.90
25092;DHT22;13082;52.374;4.946;2022-07-06T03:46:25;17.20;99.90
25092;DHT22;13082;52.374;4.946;2022-07-06T03:48:51;17.30;99.90
25092;DHT22;13082;52.374;4.946;2022-07-06T03:51:16;17.40;99.90
25092;DHT22;13082;52.374;4.946;2022-07-06T03:53:42;17.30;99.90
25092;DHT22;13082;52.374;4.946;2022-07-06T03:56:08;17.30;99.90
25092;DHT22;13082;52.374;4.946;2022-07-06T03:58:52;17.20;99.90
25092;DHT22;13082;52.374;4.946;2022-07-06T04:01:17;17.00;99.90
25092;DHT22;13082;52.374;4.946;2022-07-06T04:03:43;17.00;99.90
25092;DHT22;13082;52.374;4.946;2022-07-06T04:06:10;16.80;99.90
25092;DHT22;13082;52.374;4.946;2022-07-06T04:08:35;16.80;99.90
25092;DHT22;13082;52.374;4.946;2022-07-06T04:11:01;16.70;99.90
25092;DHT22;13082;52.374;4.946;2022-07-06T04:13:27;16.80;99.90
25092;DHT22;13082;52.374;4.946;2022-07-06T04:15:52;17.00;99.90
25092;DHT22;13082;52.374;4.946;2022-07-06T04:18:18;17.10;99.90
25092;DHT22;13082;52.374;4.946;2022-07-06T04:20:44;17.20;99.90
25092;DHT22;13082;52.374;4.946;2022-07-06T04:23:09;17.30;99.90
25092;DHT22;13082;52.374;4.946;2022-07-06T04:25:35;17.40;99.90
25092;DHT22;13082;52.374;4.946;2022-07-06T04:28:00;17.50;99.90
25092;DHT22;13082;52.374;4.946;2022-07-06T04:30:26;17.40;99.90
25092;DHT22;13082;52.374;4.946;2022-07-06T04:32:52;17.40;99.90
25092;DHT22;13082;52.374;4.946;2022-07-06T04:35:18;17.50;99.90
25092;DHT22;13082;52.374;4.946;2022-07-06T04:37:43;17.50;99.90
25092;DHT22;13082;52.374;4.946;2022-07-06T04:40:11;17.50;99.90
25092;DHT22;13082;52.374;4.946;2022-07-06T04:42:37;17.60;99.90
25092;DHT22;13082;52.374;4.946;2022-07-06T04:45:03;17.60;99.90
25092;DHT22;13082;52.374;4.946;2022-07-06T04:47:29;17.60;99.90
25092;DHT22;13082;52.374;4.946;2022-07-06T04:49:55;17.60;99.90
25092;DHT22;13082;52.374;4.946;2022-07-06T04:52:20;17.70;99.90
25092;DHT22;13082;52.374;4.946;2022-07-06T04:54:46;17.60;99.90
25092;DHT22;13082;52.374;4.946;2022-07-06T04:57:11;17.50;99.90
25092;DHT22;13082;52.374;4.946;2022-07-06T04:59:37;17.50;99.90
25092;DHT22;13082;52.374;4.946;2022-07-06T05:02:03;17.50;99.90
25092;DHT22;13082;52.374;4.946;2022-07-06T05:04:28;17.50;99.90
25092;DHT22;13082;52.374;4.946;2022-07-06T05:06:54;17.50;99.90
25092;DHT22;13082;52.374;4.946;2022-07-06T05:09:19;17.50;99.90
25092;DHT22;13082;52.374;4.946;2022-07-06T05:11:45;17.50;99.90
25092;DHT22;13082;52.374;4.946;2022-07-06T05:14:11;17.50;99.90
25092;DHT22;13082;52.374;4.946;2022-07-06T05:16:36;17.60;99.90
25092;DHT22;13082;52.374;4.946;2022-07-06T05:19:02;17.60;99.90
25092;DHT22;13082;52.374;4.946;2022-07-06T05:21:28;17.60;99.90
25092;DHT22;13082;52.374;4.946;2022-07-06T05:23:53;17.50;99.90
25092;DHT22;13082;52.374;4.946;2022-07-06T05:26:19;17.50;99.90
25092;DHT22;13082;52.374;4.946;2022-07-06T05:28:44;17.60;99.90
25092;DHT22;13082;52.374;4.946;2022-07-06T05:31:10;17.60;99.90
25092;DHT22;13082;52.374;4.946;2022-07-06T05:33:36;17.70;99.90
25092;DHT22;13082;52.374;4.946;2022-07-06T05:36:01;17.70;99.90
25092;DHT22;13082;52.374;4.946;2022-07-06T05:38:27;17.70;99.90
25092;DHT22;13082;52.374;4.946;2022-07-06T05:40:53;17.70;99.90
25092;DHT22;13082;52.374;4.946;2022-07-06T05:43:18;17.70;99.90
25092;DHT22;13082;52.374;4.946;2022-07-06T05:45:44;17.60;99.90
25092;DHT22;13082;52.374;4.946;2022-07-06T05:48:09;17.60;99.90
25092;DHT22;13082;52.374;4.946;2022-07-06T05:50:53;17.50;99.90
25092;DHT22;13082;52.374;4.946;2022-07-06T05:53:19;17.50;99.90
25092;DHT22;13082;52.374;4.946;2022-07-06T05:55:45;17.50;99.90
25092;DHT22;13082;52.374;4.946;2022-07-06T05:58:11;17.50;99.90
25092;DHT22;13082;52.374;4.946;2022-07-06T06:00:36;17.30;99.90
25092;DHT22;13082;52.374;4.946;2022-07-06T06:03:02;17.40;99.90
25092;DHT22;13082;52.374;4.946;2022-07-06T06:05:28;17.40;99.90
25092;DHT22;13082;52.374;4.946;2022-07-06T06:07:54;17.50;99.90
25092;DHT22;13082;52.374;4.946;2022-07-06T06:10:20;17.50;99.90
25092;DHT22;13082;52.374;4.946;2022-07-06T06:12:47;17.50;99.90
25092;DHT22;13082;52.374;4.946;2022-07-06T06:15:13;17.60;99.90
25092;DHT22;13082;52.374;4.946;2022-07-06T06:17:39;17.70;99.90
25092;DHT22;13082;52.374;4.946;2022-07-06T06:20:08;17.70;99.90
25092;DHT22;13082;52.374;4.946;2022-07-06T06:22:56;17.70;99.90
25092;DHT22;13082;52.374;4.946;2022-07-06T06:25:34;17.80;99.90
25092;DHT22;13082;52.374;4.946;2022-07-06T06:28:01;17.70;99.90
25092;DHT22;13082;52.374;4.946;2022-07-06T06:30:27;17.80;99.90
25092;DHT22;13082;52.374;4.946;2022-07-06T06:35:30;17.80;99.90
25092;DHT22;13082;52.374;4.946;2022-07-06T06:37:56;17.80;99.90
25092;DHT22;13082;52.374;4.946;2022-07-06T06:40:22;17.90;99.90
25092;DHT22;13082;52.374;4.946;2022-07-06T06:42:47;18.00;99.90
25092;DHT22;13082;52.374;4.946;2022-07-06T06:45:13;18.00;99.90
25092;DHT22;13082;52.374;4.946;2022-07-06T06:47:39;17.80;99.90
25092;DHT22;13082;52.374;4.946;2022-07-06T06:50:05;17.70;99.90
25092;DHT22;13082;52.374;4.946;2022-07-06T06:52:30;17.70;99.90
25092;DHT22;13082;52.374;4.946;2022-07-06T06:54:56;17.70;99.90
25092;DHT22;13082;52.374;4.946;2022-07-06T06:57:22;17.90;99.90
25092;DHT22;13082;52.374;4.946;2022-07-06T06:59:47;18.00;99.90
25092;DHT22;13082;52.374;4.946;2022-07-06T07:02:13;18.10;99.90
25092;DHT22;13082;52.374;4.946;2022-07-06T07:04:38;18.20;99.90
25092;DHT22;13082;52.374;4.946;2022-07-06T07:07:04;18.20;99.90
25092;DHT22;13082;52.374;4.946;2022-07-06T07:09:29;18.30;99.90
25092;DHT22;13082;52.374;4.946;2022-07-06T07:11:55;18.40;99.90
25092;DHT22;13082;52.374;4.946;2022-07-06T07:14:21;18.40;99.90
25092;DHT22;13082;52.374;4.946;2022-07-06T07:16:46;18.50;99.90
25092;DHT22;13082;52.374;4.946;2022-07-06T07:19:12;18.60;99.90
25092;DHT22;13082;52.374;4.946;2022-07-06T07:21:37;18.60;99.90
25092;DHT22;13082;52.374;4.946;2022-07-06T07:24:03;18.70;99.90
25092;DHT22;13082;52.374;4.946;2022-07-06T07:26:29;18.80;99.90
25092;DHT22;13082;52.374;4.946;2022-07-06T07:28:54;18.80;99.90
25092;DHT22;13082;52.374;4.946;2022-07-06T07:31:20;18.80;99.90
25092;DHT22;13082;52.374;4.946;2022-07-06T07:33:46;19.00;99.90
25092;DHT22;13082;52.374;4.946;2022-07-06T07:36:12;18.90;99.90
25092;DHT22;13082;52.374;4.946;2022-07-06T07:38:38;18.90;99.90
25092;DHT22;13082;52.374;4.946;2022-07-06T07:41:03;18.90;99.90
25092;DHT22;13082;52.374;4.946;2022-07-06T07:43:29;18.90;99.90
25092;DHT22;13082;52.374;4.946;2022-07-06T07:45:54;18.90;99.90
25092;DHT22;13082;52.374;4.946;2022-07-06T07:48:20;18.90;99.90
25092;DHT22;13082;52.374;4.946;2022-07-06T07:50:46;18.90;99.90
25092;DHT22;13082;52.374;4.946;2022-07-06T07:53:11;18.90;99.90
25092;DHT22;13082;52.374;4.946;2022-07-06T07:55:37;18.90;99.90
25092;DHT22;13082;52.374;4.946;2022-07-06T07:58:02;18.90;99.90
25092;DHT22;13082;52.374;4.946;2022-07-06T08:00:28;18.90;99.90
25092;DHT22;13082;52.374;4.946;2022-07-06T08:02:54;19.10;99.90
25092;DHT22;13082;52.374;4.946;2022-07-06T08:05:20;19.20;99.90
25092;DHT22;13082;52.374;4.946;2022-07-06T08:07:46;19.10;99.90
25092;DHT22;13082;52.374;4.946;2022-07-06T08:10:12;19.20;99.90
25092;DHT22;13082;52.374;4.946;2022-07-06T08:12:38;19.30;99.90
25092;DHT22;13082;52.374;4.946;2022-07-06T08:15:04;19.30;99.90
25092;DHT22;13082;52.374;4.946;2022-07-06T08:17:30;19.40;99.90
25092;DHT22;13082;52.374;4.946;2022-07-06T08:19:56;19.50;99.90
25092;DHT22;13082;52.374;4.946;2022-07-06T08:22:22;19.60;99.90
25092;DHT22;13082;52.374;4.946;2022-07-06T08:24:48;19.60;99.90
25092;DHT22;13082;52.374;4.946;2022-07-06T08:27:14;19.70;99.90
25092;DHT22;13082;52.374;4.946;2022-07-06T08:29:40;19.60;99.90
25092;DHT22;13082;52.374;4.946;2022-07-06T08:32:06;19.60;99.90
25092;DHT22;13082;52.374;4.946;2022-07-06T08:34:31;19.70;99.90
25092;DHT22;13082;52.374;4.946;2022-07-06T08:36:57;19.80;99.90
25092;DHT22;13082;52.374;4.946;2022-07-06T08:39:23;19.80;99.90
25092;DHT22;13082;52.374;4.946;2022-07-06T08:41:49;19.90;99.90
25092;DHT22;13082;52.374;4.946;2022-07-06T08:44:16;20.00;99.90
25092;DHT22;13082;52.374;4.946;2022-07-06T08:46:43;19.90;99.90
25092;DHT22;13082;52.374;4.946;2022-07-06T08:49:12;19.70;99.90
25092;DHT22;13082;52.374;4.946;2022-07-06T08:51:38;19.70;99.90
25092;DHT22;13082;52.374;4.946;2022-07-06T08:54:06;19.90;99.90
25092;DHT22;13082;52.374;4.946;2022-07-06T08:56:32;19.90;99.90
25092;DHT22;13082;52.374;4.946;2022-07-06T08:58:58;20.10;99.90
25092;DHT22;13082;52.374;4.946;2022-07-06T09:01:25;20.20;99.90
25092;DHT22;13082;52.374;4.946;2022-07-06T09:03:51;20.20;99.90
25092;DHT22;13082;52.374;4.946;2022-07-06T09:06:21;20.30;99.90
25092;DHT22;13082;52.374;4.946;2022-07-06T09:08:49;20.40;99.90
25092;DHT22;13082;52.374;4.946;2022-07-06T09:11:14;20.40;99.90
25092;DHT22;13082;52.374;4.946;2022-07-06T09:13:40;20.40;99.90
25092;DHT22;13082;52.374;4.946;2022-07-06T09:16:13;20.40;99.90
25092;DHT22;13082;52.374;4.946;2022-07-06T09:18:39;20.40;99.90
25092;DHT22;13082;52.374;4.946;2022-07-06T09:21:08;20.40;99.90
25092;DHT22;13082;52.374;4.946;2022-07-06T09:23:34;20.40;99.90
25092;DHT22;13082;52.374;4.946;2022-07-06T09:26:05;20.40;99.90
25092;DHT22;13082;52.374;4.946;2022-07-06T09:28:44;20.40;99.90
25092;DHT22;13082;52.374;4.946;2022-07-06T09:31:10;20.50;99.90
25092;DHT22;13082;52.374;4.946;2022-07-06T09:33:36;20.40;99.90
25092;DHT22;13082;52.374;4.946;2022-07-06T09:36:03;20.40;99.90
25092;DHT22;13082;52.374;4.946;2022-07-06T09:38:31;20.40;99.90
25092;DHT22;13082;52.374;4.946;2022-07-06T09:40:56;20.40;99.90
25092;DHT22;13082;52.374;4.946;2022-07-06T09:43:24;20.40;99.90
25092;DHT22;13082;52.374;4.946;2022-07-06T09:45:54;20.40;99.90
25092;DHT22;13082;52.374;4.946;2022-07-06T09:48:22;20.50;99.90
25092;DHT22;13082;52.374;4.946;2022-07-06T09:53:20;20.70;99.90
25092;DHT22;13082;52.374;4.946;2022-07-06T09:55:47;20.70;99.90
25092;DHT22;13082;52.374;4.946;2022-07-06T09:58:14;20.80;99.90
25092;DHT22;13082;52.374;4.946;2022-07-06T10:00:43;20.90;99.90
25092;DHT22;13082;52.374;4.946;2022-07-06T10:03:09;21.00;99.90
25092;DHT22;13082;52.374;4.946;2022-07-06T10:05:42;21.10;99.90
25092;DHT22;13082;52.374;4.946;2022-07-06T10:08:09;21.10;99.90
25092;DHT22;13082;52.374;4.946;2022-07-06T10:10:36;21.20;99.90
25092;DHT22;13082;52.374;4.946;2022-07-06T10:13:03;21.30;99.90
25092;DHT22;13082;52.374;4.946;2022-07-06T10:15:30;21.30;99.90
25092;DHT22;13082;52.374;4.946;2022-07-06T10:18:07;21.40;99.90
25092;DHT22;13082;52.374;4.946;2022-07-06T10:20:35;21.30;99.90
25092;DHT22;13082;52.374;4.946;2022-07-06T10:23:03;21.20;99.90
25092;DHT22;13082;52.374;4.946;2022-07-06T10:25:30;21.30;99.90
25092;DHT22;13082;52.374;4.946;2022-07-06T10:27:57;21.40;99.90
25092;DHT22;13082;52.374;4.946;2022-07-06T10:30:23;21.50;99.90
25092;DHT22;13082;52.374;4.946;2022-07-06T10:32:50;21.50;99.90
25092;DHT22;13082;52.374;4.946;2022-07-06T10:35:18;21.50;99.90
25092;DHT22;13082;52.374;4.946;2022-07-06T10:37:44;21.60;99.90
25092;DHT22;13082;52.374;4.946;2022-07-06T10:40:13;21.80;99.90
25092;DHT22;13082;52.374;4.946;2022-07-06T10:43:01;21.80;99.90
25092;DHT22;13082;52.374;4.946;2022-07-06T10:50:56;21.90;99.90
25092;DHT22;13082;52.374;4.946;2022-07-06T10:53:31;22.00;99.90
25092;DHT22;13082;52.374;4.946;2022-07-06T10:55:58;22.10;99.90
25092;DHT22;13082;52.374;4.946;2022-07-06T10:58:40;22.20;99.90
25092;DHT22;13082;52.374;4.946;2022-07-06T11:01:09;22.10;99.90
25092;DHT22;13082;52.374;4.946;2022-07-06T11:03:41;22.20;99.90
25092;DHT22;13082;52.374;4.946;2022-07-06T11:06:10;22.20;99.90
25092;DHT22;13082;52.374;4.946;2022-07-06T11:08:55;22.20;99.90
25092;DHT22;13082;52.374;4.946;2022-07-06T11:13:59;22.10;99.90
25092;DHT22;13082;52.374;4.946;2022-07-06T11:16:30;22.20;99.90
25092;DHT22;13082;52.374;4.946;2022-07-06T11:19:04;22.20;99.90
25092;DHT22;13082;52.374;4.946;2022-07-06T11:21:41;22.30;99.90
25092;DHT22;13082;52.374;4.946;2022-07-06T11:24:12;22.40;99.90
25092;DHT22;13082;52.374;4.946;2022-07-06T11:26:38;22.40;99.90
25092;DHT22;13082;52.374;4.946;2022-07-06T11:29:08;22.40;99.90
25092;DHT22;13082;52.374;4.946;2022-07-06T11:31:35;22.40;99.90
25092;DHT22;13082;52.374;4.946;2022-07-06T11:34:03;22.50;99.90
25092;DHT22;13082;52.374;4.946;2022-07-06T11:36:29;22.50;99.90
25092;DHT22;13082;52.374;4.946;2022-07-06T11:38:55;22.60;99.90
25092;DHT22;13082;52.374;4.946;2022-07-06T11:41:21;22.70;99.90
25092;DHT22;13082;52.374;4.946;2022-07-06T11:43:47;22.70;99.90
25092;DHT22;13082;52.374;4.946;2022-07-06T11:46:34;22.80;99.90
25092;DHT22;13082;52.374;4.946;2022-07-06T11:49:08;22.80;99.90
25092;DHT22;13082;52.374;4.946;2022-07-06T11:51:38;22.90;99.90
25092;DHT22;13082;52.374;4.946;2022-07-06T11:54:12;22.60;99.90
25092;DHT22;13082;52.374;4.946;2022-07-06T11:56:44;22.60;99.90
25092;DHT22;13082;52.374;4.946;2022-07-06T11:59:10;22.70;99.90
25092;DHT22;13082;52.374;4.946;2022-07-06T12:01:36;22.70;99.90
25092;DHT22;13082;52.374;4.946;2022-07-06T12:04:07;22.70;99.90
25092;DHT22;13082;52.374;4.946;2022-07-06T12:06:33;22.70;99.90
25092;DHT22;13082;52.374;4.946;2022-07-06T12:09:00;22.70;99.90
25092;DHT22;13082;52.374;4.946;2022-07-06T12:11:31;22.70;99.90
25092;DHT22;13082;52.374;4.946;2022-07-06T12:13:59;22.80;99.90
25092;DHT22;13082;52.374;4.946;2022-07-06T12:16:44;22.80;99.90
25092;DHT22;13082;52.374;4.946;2022-07-06T12:19:10;22.90;99.90
25092;DHT22;13082;52.374;4.946;2022-07-06T12:21:44;22.90;99.90
25092;DHT22;13082;52.374;4.946;2022-07-06T12:24:10;22.90;99.90
25092;DHT22;13082;52.374;4.946;2022-07-06T12:26:40;22.80;99.90
25092;DHT22;13082;52.374;4.946;2022-07-06T12:29:08;22.70;99.90
25092;DHT22;13082;52.374;4.946;2022-07-06T12:31:40;22.70;99.90
25092;DHT22;13082;52.374;4.946;2022-07-06T12:34:13;22.60;99.90
25092;DHT22;13082;52.374;4.946;2022-07-06T12:37:05;22.60;99.90
25092;DHT22;13082;52.374;4.946;2022-07-06T12:39:29;22.50;99.90
25092;DHT22;13082;52.374;4.946;2022-07-06T12:42:02;22.50;99.90
25092;DHT22;13082;52.374;4.946;2022-07-06T12:44:28;22.50;99.90
25092;DHT22;13082;52.374;4.946;2022-07-06T12:47:05;22.60;99.90
25092;DHT22;13082;52.374;4.946;2022-07-06T12:49:32;22.60;99.90
25092;DHT22;13082;52.374;4.946;2022-07-06T12:57:05;22.70;99.90
25092;DHT22;13082;52.374;4.946;2022-07-06T12:59:42;22.60;99.90
25092;DHT22;13082;52.374;4.946;2022-07-06T13:02:16;22.40;99.90
25092;DHT22;13082;52.374;4.946;2022-07-06T13:04:42;22.30;99.90
25092;DHT22;13082;52.374;4.946;2022-07-06T13:07:17;22.20;99.90
25092;DHT22;13082;52.374;4.946;2022-07-06T13:09:44;22.10;99.90
25092;DHT22;13082;52.374;4.946;2022-07-06T13:12:10;22.00;99.90
25092;DHT22;13082;52.374;4.946;2022-07-06T13:14:36;21.90;99.90
25092;DHT22;13082;52.374;4.946;2022-07-06T13:17:02;21.80;99.90
25092;DHT22;13082;52.374;4.946;2022-07-06T13:19:28;21.80;99.90
25092;DHT22;13082;52.374;4.946;2022-07-06T13:21:54;21.90;99.90
25092;DHT22;13082;52.374;4.946;2022-07-06T13:24:19;21.90;99.90
25092;DHT22;13082;52.374;4.946;2022-07-06T13:26:45;22.00;99.90
25092;DHT22;13082;52.374;4.946;2022-07-06T13:29:12;21.90;99.90
25092;DHT22;13082;52.374;4.946;2022-07-06T13:31:38;21.70;99.90
25092;DHT22;13082;52.374;4.946;2022-07-06T13:34:05;21.60;99.90
25092;DHT22;13082;52.374;4.946;2022-07-06T13:36:32;21.50;99.90
25092;DHT22;13082;52.374;4.946;2022-07-06T13:38:58;21.30;99.90
25092;DHT22;13082;52.374;4.946;2022-07-06T13:41:23;21.30;99.90
25092;DHT22;13082;52.374;4.946;2022-07-06T13:43:49;21.20;99.90
25092;DHT22;13082;52.374;4.946;2022-07-06T13:46:15;21.10;99.90
25092;DHT22;13082;52.374;4.946;2022-07-06T13:48:42;21.10;99.90
25092;DHT22;13082;52.374;4.946;2022-07-06T13:51:07;21.10;99.90
25092;DHT22;13082;52.374;4.946;2022-07-06T13:53:33;21.20;99.90
25092;DHT22;13082;52.374;4.946;2022-07-06T13:55:59;21.20;99.90
25092;DHT22;13082;52.374;4.946;2022-07-06T13:58:24;21.30;99.90
25092;DHT22;13082;52.374;4.946;2022-07-06T14:00:50;21.30;99.90
25092;DHT22;13082;52.374;4.946;2022-07-06T14:03:15;21.10;99.90
25092;DHT22;13082;52.374;4.946;2022-07-06T14:05:41;21.00;99.90
25092;DHT22;13082;52.374;4.946;2022-07-06T14:08:07;21.00;99.90
25092;DHT22;13082;52.374;4.946;2022-07-06T14:10:33;21.00;99.90
25092;DHT22;13082;52.374;4.946;2022-07-06T14:12:58;20.70;99.90
25092;DHT22;13082;52.374;4.946;2022-07-06T14:15:24;20.70;99.90
25092;DHT22;13082;52.374;4.946;2022-07-06T14:17:49;20.80;99.90
25092;DHT22;13082;52.374;4.946;2022-07-06T14:20:15;20.80;99.90
25092;DHT22;13082;52.374;4.946;2022-07-06T14:22:41;20.80;99.90
25092;DHT22;13082;52.374;4.946;2022-07-06T14:25:08;20.80;99.90
25092;DHT22;13082;52.374;4.946;2022-07-06T14:27:34;20.80;99.90
25092;DHT22;13082;52.374;4.946;2022-07-06T14:30:00;20.80;99.90
25092;DHT22;13082;52.374;4.946;2022-07-06T14:32:25;20.70;99.90
25092;DHT22;13082;52.374;4.946;2022-07-06T14:34:51;20.70;99.90
25092;DHT22;13082;52.374;4.946;2022-07-06T14:37:17;20.50;99.90
25092;DHT22;13082;52.374;4.946;2022-07-06T14:39:42;20.30;99.90
25092;DHT22;13082;52.374;4.946;2022-07-06T14:42:10;20.30;99.90
25092;DHT22;13082;52.374;4.946;2022-07-06T14:44:36;20.30;99.90
25092;DHT22;13082;52.374;4.946;2022-07-06T14:47:01;20.40;99.90
25092;DHT22;13082;52.374;4.946;2022-07-06T14:49:27;20.50;99.90
25092;DHT22;13082;52.374;4.946;2022-07-06T14:51:53;20.50;99.90
25092;DHT22;13082;52.374;4.946;2022-07-06T14:54:18;20.50;99.90
25092;DHT22;13082;52.374;4.946;2022-07-06T14:56:44;20.50;99.90
25092;DHT22;13082;52.374;4.946;2022-07-06T14:59:10;20.40;99.90
25092;DHT22;13082;52.374;4.946;2022-07-06T15:01:35;20.50;99.90
25092;DHT22;13082;52.374;4.946;2022-07-06T15:04:01;20.50;99.90
25092;DHT22;13082;52.374;4.946;2022-07-06T15:06:26;20.40;99.90
25092;DHT22;13082;52.374;4.946;2022-07-06T15:08:52;20.40;99.90
25092;DHT22;13082;52.374;4.946;2022-07-06T15:11:18;20.50;99.90
25092;DHT22;13082;52.374;4.946;2022-07-06T15:13:43;20.40;99.90
25092;DHT22;13082;52.374;4.946;2022-07-06T15:16:09;20.30;99.90
25092;DHT22;13082;52.374;4.946;2022-07-06T15:18:34;20.30;99.90
25092;DHT22;13082;52.374;4.946;2022-07-06T15:21:00;20.10;99.90
25092;DHT22;13082;52.374;4.946;2022-07-06T15:23:26;20.00;99.90
25092;DHT22;13082;52.374;4.946;2022-07-06T15:25:53;20.00;99.90
25092;DHT22;13082;52.374;4.946;2022-07-06T15:28:19;19.90;99.90
25092;DHT22;13082;52.374;4.946;2022-07-06T15:30:45;20.00;99.90
25092;DHT22;13082;52.374;4.946;2022-07-06T15:33:11;20.00;99.90
25092;DHT22;13082;52.374;4.946;2022-07-06T15:35:36;20.10;99.90
25092;DHT22;13082;52.374;4.946;2022-07-06T15:38:02;20.10;99.90
25092;DHT22;13082;52.374;4.946;2022-07-06T15:40:32;20.20;99.90
25092;DHT22;13082;52.374;4.946;2022-07-06T15:43:03;20.10;99.90
25092;DHT22;13082;52.374;4.946;2022-07-06T15:45:29;20.10;99.90